août
29

GP’S MX1, MX2 & WMX DE LIEROP : LES PÔLES POUR DE DYCKER & GONCALVES

youthstreamlieropmxbanner09

MX1 – Qualifying Race Classification
Pos Nr Rider Nat. Fed. Bike Time laps Diff. First Diff. Prev. Bestlaptime in lap Speed

1 9 de Dycker, Ken BEL FMB Suzuki 25:40.839 11 0:00.000 0:00.000 2:02.834 2 51.289
2 25 Desalle, Clement BEL FMB Honda 25:48.477 11 0:07.638 0:07.638 2:04.634 1 50.548
3 5 Nagl, Maximilian GER DMSB KTM 25:55.000 11 0:14.161 0:06.523 2:06.762 2 49.699
4 11 Ramon, Steve BEL FMB Suzuki 26:21.612 11 0:40.773 0:26.612 2:08.571 1 49
5 14 de Reuver, Marc NED KNMV Honda 26:28.603 11 0:47.764 0:06.991 2:10.170 2 48.398
6 19 Philippaerts, David ITA FMI Yamaha 26:33.158 11 0:52.319 0:04.555 2:08.889 3 48.879
7 211 Mackenzie, Billy GBR ACU Honda 26:36.940 11 0:56.101 0:03.782 2:08.396 1 49.067
8 17 Swanepoel, Gareth RSA MSA Kawasaki 26:40.690 11 0:59.851 0:03.750 2:11.470 1 47.92
9 8 Leok, Tanel EST EMF Yamaha 26:42.454 11 1:01.615 0:01.764 2:09.362 4 48.701
10 111 Leok, Aigar EST EMF TM 26:44.467 11 1:03.628 0:02.013 2:10.210 3 48.383
11 6 Coppins, Joshua NZL MNZ Yamaha 26:50.126 11 1:09.287 0:05.659 2:10.058 8 48.44
12 222 Cairoli, Antonio ITA FMI Yamaha 26:56.545 11 1:15.706 0:06.419 2:11.511 3 47.905
13 32 Priem, Manuel BEL FMB Aprilia 26:57.940 11 1:17.101 0:01.395 2:10.592 1 48.242
14 63 Roos, Patrick NED KNMV KTM 27:04.901 11 1:24.062 0:06.961 2:12.125 2 47.682
15 37 Krestinov, Gert EST EMF KTM 27:06.800 11 1:25.961 0:01.899 2:11.191 2 48.022
16 24 Church, Tom GBR ACU CCM 27:08.275 11 1:27.436 0:01.475 2:12.255 4 47.635
17 56 van Vijfeijken, Rob NED KNMV Yamaha 27:22.234 11 1:41.395 0:13.959 2:13.184 1 47.303
18 34 Salaets, Kristof. BEL FMB Honda 27:26.018 11 1:45.179 0:03.784 2:14.065 2 46.992
19 125 Martens, Yentel BEL FMB KTM 27:39.550 11 1:58.711 0:13.532 2:13.770 1 47.096
20 126 Reynders, Stuwey NED KNMV Suzuki 27:46.743 11 2:05.904 0:07.193 2:14.197 4 46.946
21 20 Aranda, Gregory FRA FFM Kawasaki 27:59.755 11 2:18.916 0:13.012 2:17.080 3 45.959
22 117 Söderström, Tom SWE SVEMO Kawasaki 28:22.802 11 2:41.963 0:23.047 2:12.552 4 47.529
23 36 Bonini, Matteo ITA FMI KTM 25:42.135 10 1 lap(s) 1 lap(s) 2:13.816 3 47.08
24 77 Terreblanche, Shannon RSA MSA Kawasaki 25:46.738 10 1 lap(s) 0:04.603 2:15.013 2 46.662
25 115 Campano, Carlos ESP RFME Yamaha 26:18.613 10 1 lap(s) 0:31.875 2:12.970 3 47.379
26 131 Michek, Martin CZE ACCR TM 26:19.385 10 1 lap(s) 0:00.772 2:19.652 2 45.112
27 173 Potisek, Timotei FRA FFM Honda 26:36.137 10 1 lap(s) 0:16.752 2:14.236 1 46.932
28 74 Steinbergs, Ivo LAT LAMSF Honda 26:49.396 10 1 lap(s) 0:13.259 2:18.811 4 45.385
29 26 Rowson, Ray GBR ACU CCM 26:59.311 10 1 lap(s) 0:09.915 2:19.978 2 45.007
30 15 Bill, Julien SUI FMS Aprilia 27:12.627 10 1 lap(s) 0:13.316 2:16.967 4 45.996
31 12 Vuillemin, David FRA FFM Kawasaki 27:13.574 10 1 lap(s) 0:00.947 2:22.078 4 44.342
32 711 Harbich, Radomir CZE MUL Suzuki 27:46.197 10 1 lap(s) 0:32.623 2:24.063 2 43.731
33 333 Bozic, Danijel CRO HMS KTM 27:52.986 9 2 lap(s) 1 lap(s) 2:39.101 1 39.597
34 46 Dougan, Jason GBR ACU CCM 13:58.308 5 6 lap(s) 4 lap(s) 2:16.584 1 46.125
35 10 Melotte, Cedric BEL FMB Honda 7:05.449 2 9 lap(s) 3 lap(s) 2:15.052 1 46.649
36 7 Barragan, Jonathan ESP RFME KTM 8:18.782 2 9 lap(s) 1:13.333 2:43.746 2 38.474

MX2 – Qualifying Race Classification
Pos Nr Rider Nat. Fed. Bike Time laps Diff. First Diff. Prev. Bestlaptime in lap Speed

1 5 Goncalves, Rui POR FMP KTM 25:15.666 11 0:00.000 0:00.000 2:02.977 2 51.229
2 25 Musquin, Marvin FRA FFM KTM 25:18.681 11 0:03.015 0:03.015 2:02.879 1 51.27
3 34 Roelants, Joel BEL FMB KTM 25:21.402 11 0:05.736 0:02.721 2:04.837 3 50.466
4 89 van Horebeek, Jeremy BEL FMB KTM 25:57.074 11 0:41.408 0:35.672 2:03.387 2 51.059
5 94 Roczen, Ken GER DMSB Suzuki 25:57.148 11 0:41.482 0:00.074 2:04.544 3 50.585
6 4 Simpson, Shaun GBR MCUI KTM 26:10.618 11 0:54.952 0:13.470 2:05.500 1 50.199
7 121 Boog, Xavier FRA FFM Suzuki 26:14.611 11 0:58.945 0:03.993 2:07.007 1 49.604
8 3 Aubin, Nicolas FRA FFM Yamaha 26:21.337 11 1:05.671 0:06.726 2:09.271 4 48.735
9 13 Monni, Manuel ITA FMI Yamaha 26:24.456 11 1:08.790 0:03.119 2:08.398 2 49.066
10 56 Bobryshev, Evgeny RUS MFR Yamaha 26:26.276 11 1:10.610 0:01.820 2:07.256 1 49.507
11 183 Frossard, Steven FRA FFM Kawasaki 26:26.902 11 1:11.236 0:00.626 2:08.657 4 48.967
12 338 Osborne, Zach USA ACU Yamaha 26:28.802 11 1:13.136 0:01.900 2:10.114 4 48.419
13 91 Karro, Matiss LAT LAMSF Suzuki 26:28.872 11 1:13.206 0:00.070 2:09.211 1 48.757
14 30 Klein Kromhof, Ceriel NED KNMV KTM 26:33.558 11 1:17.892 0:04.686 2:07.582 1 49.38
15 7 Sword, Stephen GBR ACU KTM 26:34.621 11 1:18.955 0:01.063 2:10.596 4 48.24
16 39 Guarneri, Davide ITA FMI Yamaha 26:38.450 11 1:22.784 0:03.829 2:06.822 1 49.676
17 55 Kras, Mike NED KNMV KTM 26:39.905 11 1:24.239 0:01.455 2:08.835 1 48.9
18 21 Paulin, Gautier FRA MCM Kawasaki 26:44.084 11 1:28.418 0:04.179 2:07.863 3 49.271
19 335 Verbruggen, Dennis BEL FMB Honda 26:56.453 11 1:40.787 0:12.369 2:09.577 3 48.62
20 24 Butron Oliva, Jose Antonio ESP RFME Suzuki 26:58.501 11 1:42.835 0:02.048 2:11.133 2 48.043
21 45 Nicholls, Jake GBR ACU KTM 27:04.667 11 1:49.001 0:06.166 2:09.930 4 48.488
22 51 Smitka, Petr CZE ACCR KTM 27:07.866 11 1:52.200 0:03.199 2:10.180 3 48.395
23 198 Coldenhoff, Glenn NED KNMV Suzuki 27:11.020 11 1:55.354 0:03.154 2:11.847 5 47.783
24 119 Pocock, Mel GBR ACU Yamaha 27:17.614 11 2:01.948 0:06.594 2:09.662 3 48.588
25 37 Teillet, Valentin FRA FFM KTM 27:20.111 11 2:04.445 0:02.497 2:10.761 3 48.18
26 202 Larrieu, Loic FRA FFM Yamaha 27:20.784 11 2:05.118 0:00.673 2:11.234 3 48.006
27 23 Tonus, Arnaud SUI FMS KTM 27:23.680 11 2:08.014 0:02.896 2:10.436 2 48.3
28 133 Leijtens, Eric NED KNMV KTM 27:51.520 11 2:35.854 0:27.840 2:12.420 1 47.576
29 44 Kojima, Yohei JPN MFJ Suzuki 25:23.170 10 1 lap(s) 1 lap(s) 2:15.345 2 46.548
30 95 Justs, Augusts LAT LAMSF KTM 25:25.970 10 1 lap(s) 0:02.800 2:15.285 3 46.568
31 75 Triest, Nick BEL FMB KTM 25:36.087 10 1 lap(s) 0:10.117 2:11.255 3 47.998
32 519 Rombaut, Loic FRA FFM Kawasaki 25:37.103 10 1 lap(s) 0:01.016 2:12.930 4 47.393
33 17 Clermont, Jason FRA FFM Honda 25:38.210 10 1 lap(s) 0:01.107 2:16.607 1 46.118
34 33 Soubeyras, Cedric FRA FFM Honda 25:39.166 10 1 lap(s) 0:00.956 2:15.920 2 46.351
35 153 Maddii, Marco ITA FMI Suzuki 25:55.726 10 1 lap(s) 0:16.560 2:17.839 3 45.705
36 14 Philippaerts, Deny ITA FMI Yamaha 27:13.940 10 1 lap(s) 1:18.214 2:17.578 3 45.792
37 22 Boissiere, Anthony FRA FFM KTM 20:23.523 8 3 lap(s) 2 lap(s) 2:10.214 2 48.382
38 175 Larsen, Nikolai DEN DMU Suzuki 14:20.070 5 6 lap(s) 3 lap(s) 2:06.916 1 49.639
39 19 Vandueren, Kenny BEL FMB KTM 9:18.442 3 8 lap(s) 2 lap(s) 2:12.189 2 47.659

MX2 – Qualifying Race Classification
Pos Nr Rider Nat. Fed. Bike Time laps Diff. First Diff. Prev. Bestlaptime in lap Speed

1 5 Goncalves, Rui POR FMP KTM 25:15.666 11 0:00.000 0:00.000 2:02.977 2 51.229
2 25 Musquin, Marvin FRA FFM KTM 25:18.681 11 0:03.015 0:03.015 2:02.879 1 51.27
3 34 Roelants, Joel BEL FMB KTM 25:21.402 11 0:05.736 0:02.721 2:04.837 3 50.466
4 89 van Horebeek, Jeremy BEL FMB KTM 25:57.074 11 0:41.408 0:35.672 2:03.387 2 51.059
5 94 Roczen, Ken GER DMSB Suzuki 25:57.148 11 0:41.482 0:00.074 2:04.544 3 50.585
6 4 Simpson, Shaun GBR MCUI KTM 26:10.618 11 0:54.952 0:13.470 2:05.500 1 50.199
7 121 Boog, Xavier FRA FFM Suzuki 26:14.611 11 0:58.945 0:03.993 2:07.007 1 49.604
8 3 Aubin, Nicolas FRA FFM Yamaha 26:21.337 11 1:05.671 0:06.726 2:09.271 4 48.735
9 13 Monni, Manuel ITA FMI Yamaha 26:24.456 11 1:08.790 0:03.119 2:08.398 2 49.066
10 56 Bobryshev, Evgeny RUS MFR Yamaha 26:26.276 11 1:10.610 0:01.820 2:07.256 1 49.507
11 183 Frossard, Steven FRA FFM Kawasaki 26:26.902 11 1:11.236 0:00.626 2:08.657 4 48.967
12 338 Osborne, Zach USA ACU Yamaha 26:28.802 11 1:13.136 0:01.900 2:10.114 4 48.419
13 91 Karro, Matiss LAT LAMSF Suzuki 26:28.872 11 1:13.206 0:00.070 2:09.211 1 48.757
14 30 Klein Kromhof, Ceriel NED KNMV KTM 26:33.558 11 1:17.892 0:04.686 2:07.582 1 49.38
15 7 Sword, Stephen GBR ACU KTM 26:34.621 11 1:18.955 0:01.063 2:10.596 4 48.24
16 39 Guarneri, Davide ITA FMI Yamaha 26:38.450 11 1:22.784 0:03.829 2:06.822 1 49.676
17 55 Kras, Mike NED KNMV KTM 26:39.905 11 1:24.239 0:01.455 2:08.835 1 48.9
18 21 Paulin, Gautier FRA MCM Kawasaki 26:44.084 11 1:28.418 0:04.179 2:07.863 3 49.271
19 335 Verbruggen, Dennis BEL FMB Honda 26:56.453 11 1:40.787 0:12.369 2:09.577 3 48.62
20 24 Butron Oliva, Jose Antonio ESP RFME Suzuki 26:58.501 11 1:42.835 0:02.048 2:11.133 2 48.043
21 45 Nicholls, Jake GBR ACU KTM 27:04.667 11 1:49.001 0:06.166 2:09.930 4 48.488
22 51 Smitka, Petr CZE ACCR KTM 27:07.866 11 1:52.200 0:03.199 2:10.180 3 48.395
23 198 Coldenhoff, Glenn NED KNMV Suzuki 27:11.020 11 1:55.354 0:03.154 2:11.847 5 47.783
24 119 Pocock, Mel GBR ACU Yamaha 27:17.614 11 2:01.948 0:06.594 2:09.662 3 48.588
25 37 Teillet, Valentin FRA FFM KTM 27:20.111 11 2:04.445 0:02.497 2:10.761 3 48.18
26 202 Larrieu, Loic FRA FFM Yamaha 27:20.784 11 2:05.118 0:00.673 2:11.234 3 48.006
27 23 Tonus, Arnaud SUI FMS KTM 27:23.680 11 2:08.014 0:02.896 2:10.436 2 48.3
28 133 Leijtens, Eric NED KNMV KTM 27:51.520 11 2:35.854 0:27.840 2:12.420 1 47.576
29 44 Kojima, Yohei JPN MFJ Suzuki 25:23.170 10 1 lap(s) 1 lap(s) 2:15.345 2 46.548
30 95 Justs, Augusts LAT LAMSF KTM 25:25.970 10 1 lap(s) 0:02.800 2:15.285 3 46.568
31 75 Triest, Nick BEL FMB KTM 25:36.087 10 1 lap(s) 0:10.117 2:11.255 3 47.998
32 519 Rombaut, Loic FRA FFM Kawasaki 25:37.103 10 1 lap(s) 0:01.016 2:12.930 4 47.393
33 17 Clermont, Jason FRA FFM Honda 25:38.210 10 1 lap(s) 0:01.107 2:16.607 1 46.118
34 33 Soubeyras, Cedric FRA FFM Honda 25:39.166 10 1 lap(s) 0:00.956 2:15.920 2 46.351
35 153 Maddii, Marco ITA FMI Suzuki 25:55.726 10 1 lap(s) 0:16.560 2:17.839 3 45.705
36 14 Philippaerts, Deny ITA FMI Yamaha 27:13.940 10 1 lap(s) 1:18.214 2:17.578 3 45.792
37 22 Boissiere, Anthony FRA FFM KTM 20:23.523 8 3 lap(s) 2 lap(s) 2:10.214 2 48.382
38 175 Larsen, Nikolai DEN DMU Suzuki 14:20.070 5 6 lap(s) 3 lap(s) 2:06.916 1 49.639
39 19 Vandueren, Kenny BEL FMB KTM 9:18.442 3 8 lap(s) 2 lap(s) 2:12.189 2 47.659

youthstreammxsponso09

A voir aussi :

Le commentaires sont fermés.